LTFJLTCF

Guest
Details From LTFJ - SABIHA GOKCEN
To LTCF - KARS
Flight Number -
Tags decoded
Created
Modified
Stats Distance 653 nm / 1,210 km
Max Altitude 0 ft / 0 m
Waypoints 7
Social Downloads 0
Likes 0
Share VATSIM

Download

Looking for another format? Having issues loading an existing format? Contact us
Advertisement - Login to hide

Notes

Requested: LTFJ BKZ AKCAK CAY KST RUXEV CRM ERKOS ARLAT TBN LEGDO LTCF Unmatched points: KST RUXEV ERKOS ARLAT LEGDO

Route

LTFJ BKZ AKCAK CAY CRM TBN LTCF

ID Type Via Altitude Latitude Longitude Leg Dist Tot Dist Heading (true) Name
O LTFJ APT - 0 ft / 0 m 40.89855˚ 29.30922˚ - 0 nm - SABIHA GOKCEN
BKZ VOR - 0 ft / 0 m 41.12694˚ 29.14278˚ 15 nm 15 nm 331° / 331° BEYKOZ VOR-DME
AKCAK FIX - 0 ft / 0 m 41.42889˚ 30.72472˚ 73 nm 89 nm 75° / 76° -
CAY NDB - 0 ft / 0 m 41.50750˚ 32.08806˚ 61 nm 150 nm 85° / 86° CAYCUMA NDB-DME
CRM NDB - 0 ft / 0 m 41.26551˚ 36.54904˚ 201 nm 352 nm 93° / 96° CARSAMBA NDB
TBN NDB - 0 ft / 0 m 40.99528˚ 39.79556˚ 147 nm 500 nm 95° / 97° TRABZON NDB
O LTCF APT - 0 ft / 0 m 40.56208˚ 43.11500˚ 153 nm 653 nm 99° / 101° KARS

Altitude Profile

Advertisement - Login to hide

Weather


0- 5 10 15 20 25 30 35+ Temperature / ° C

Clouds and Precipitation
Forecast for 2017-12-14 00:00 UTC. Updated an hour ago

Ground ~20,000 ft ~40,000 ft Winds

LTFJ

Details ICAO LTFJ (SAW)
Name SABIHA GOKCEN
Region Turkey
Timezone Europe/Istanbul (UTC+3.0)
Stats Elevation 312 ft / 95 m (AMSL)
Location 40.898552° 29.309221°
Runways 1
Magnetic Variation 5.474° E

METAR

LTFJ 140020Z VRB01KT CAVOK 10/07 Q1015 NOSIG

Decode

TAF

TAF LTFJ 131640Z 1318/1418 VRB02KT CAVOK BECMG 1406/1409 23012KT SCT035 BKN100 PROB30 TEMPO 1411/1415 -TSRA FEW020CB BKN030

Decode

Departure Runways

ID Width Length Bearing (true) Bearing (mag) Surface Threshold Offset Overrun Length
06 148 ft / 45 m 9,690 ft / 2,953 m 64.01° 58.54° Concrete 0 ft / 0 m 197 ft / 60 m
24 148 ft / 45 m 9,690 ft / 2,953 m 244.03° 238.56° Concrete 0 ft / 0 m 197 ft / 60 m

LTCF

Details ICAO LTCF (KSY)
Name KARS
Region Turkey
Timezone Europe/Istanbul (UTC+3.0)
Stats Elevation 5,889 ft / 1,795 m (AMSL)
Location 40.562083° 43.115000°
Runways 1
Magnetic Variation 6.300° E

METAR

LTCF 132350Z 30006KT CAVOK M15/M17 Q1022

Decode

TAF

Not found

Destination Runways

ID Width Length Bearing (true) Bearing (mag) Surface Threshold Offset Overrun Length
06 148 ft / 45 m 11,452 ft / 3,491 m 64.28° 57.98° Concrete 0 ft / 0 m 195 ft / 59 m
24 148 ft / 45 m 11,452 ft / 3,491 m 244.31° 238.01° Concrete 0 ft / 0 m 195 ft / 59 m

Approach Navaids

Runway Type Ident Frequency Range Bearing (true) Bearing (mag) Slope Elevation
06 Localiser IKAR 108.30 MHz 18 nm / 33 km 64.87° 58.57° - 5,899 ft / 1,798 m (AMSL)
06 Glidescope IKAR 108.30 MHz 10 nm / 19 km 64.30° 58.00° 3.00° 5,882 ft / 1,793 m (AMSL)

Popular Alternatives